Time;durP1;ratioP1;P1;durP2;ratioP2;P2;SDS_P1;SDS_P2;PMS_P1;PMS_P2;Temp;Humidity;BMP_temperature;BMP_pressure;BME280_temperature;BME280_humidity;BME280_pressure;Samples;Min_cycle;Max_cycle;Signal;HPM_P1;HPM_P2
2024/03/02 00:00:33;;;;;;;12.88;11.32;;;8.90;99.90;;;;;;5094791;28;20215;-64
2024/03/02 00:02:59;;;;;;;14.63;12.15;;;8.90;99.90;;;;;;5095185;28;20211;-63
2024/03/02 00:05:26;;;;;;;11.88;10.18;;;8.90;99.90;;;;;;5095146;28;20211;-63
2024/03/02 00:07:55;;;;;;;12.73;10.57;;;8.90;99.90;;;;;;5095235;28;20216;-64
2024/03/02 00:10:29;;;;;;;17.17;13.07;;;8.90;99.90;;;;;;5095076;28;20300;-64
2024/03/02 00:12:56;;;;;;;17.23;12.35;;;8.90;99.90;;;;;;5095814;28;20184;-63
2024/03/02 00:15:46;;;;;;;14.18;12.48;;;8.90;99.90;;;;;;5095532;28;20228;-64
2024/03/02 00:18:15;;;;;;;15.02;11.23;;;8.90;99.90;;;;;;5094104;28;20698;-64
2024/03/02 00:20:42;;;;;;;15.35;11.85;;;8.90;99.90;;;;;;5094834;28;20204;-64
2024/03/02 00:23:10;;;;;;;14.82;12.13;;;8.90;99.90;;;;;;5094175;28;20200;-63
2024/03/02 00:25:42;;;;;;;13.90;12.48;;;8.90;99.90;;;;;;5094979;28;20345;-65
2024/03/02 00:28:17;;;;;;;13.80;12.40;;;8.90;99.90;;;;;;5095488;28;20246;-65
2024/03/02 00:30:57;;;;;;;13.73;11.75;;;8.90;99.90;;;;;;5098992;28;20188;-64
2024/03/02 00:33:27;;;;;;;12.23;10.70;;;8.90;99.90;;;;;;5099583;28;20191;-66
2024/03/02 00:35:54;;;;;;;16.65;13.70;;;8.90;99.90;;;;;;5098844;28;20234;-64
2024/03/02 00:38:22;;;;;;;16.55;12.75;;;8.90;99.90;;;;;;5098370;28;20224;-65
2024/03/02 00:40:49;;;;;;;15.10;12.18;;;8.90;99.90;;;;;;5098631;28;20826;-65
2024/03/02 00:43:45;;;;;;;17.00;12.65;;;8.80;99.90;;;;;;5098110;28;20666;-65
2024/03/02 00:46:16;;;;;;;17.85;12.45;;;8.90;99.90;;;;;;5098213;28;20695;-64
2024/03/02 00:48:55;;;;;;;15.70;12.20;;;8.80;99.90;;;;;;5099508;28;20231;-64
2024/03/02 00:51:23;;;;;;;17.58;13.10;;;8.80;99.90;;;;;;5098408;28;20631;-64
2024/03/02 00:53:50;;;;;;;15.48;12.57;;;8.80;99.90;;;;;;5097812;28;20239;-64
2024/03/02 00:56:17;;;;;;;15.32;12.10;;;8.80;99.90;;;;;;5096571;28;20222;-64
2024/03/02 00:58:44;;;;;;;15.43;12.90;;;8.80;99.90;;;;;;5098075;28;20594;-64
2024/03/02 01:01:12;;;;;;;18.30;13.20;;;8.80;99.90;;;;;;5097158;28;20196;-64
2024/03/02 01:03:39;;;;;;;17.35;13.35;;;8.80;99.90;;;;;;5097850;28;20587;-63
2024/03/02 01:06:07;;;;;;;19.48;13.75;;;8.80;99.90;;;;;;5098238;28;20205;-64
2024/03/02 01:08:34;;;;;;;18.70;13.88;;;8.80;99.90;;;;;;5097647;28;20220;-64
2024/03/02 01:11:01;;;;;;;17.27;14.43;;;8.80;99.90;;;;;;5097811;28;20673;-64
2024/03/02 01:13:27;;;;;;;15.48;13.07;;;8.90;99.90;;;;;;5097507;28;20578;-64
2024/03/02 01:15:54;;;;;;;16.92;13.68;;;8.90;99.90;;;;;;5098297;28;20211;-64
2024/03/02 01:18:23;;;;;;;17.40;13.65;;;8.90;99.90;;;;;;5097677;28;20314;-64
2024/03/02 01:20:51;;;;;;;19.95;15.43;;;8.90;99.90;;;;;;5098006;28;20204;-64
2024/03/02 01:23:19;;;;;;;21.00;16.17;;;8.90;99.90;;;;;;5097590;28;20204;-63
2024/03/02 01:25:46;;;;;;;20.25;14.50;;;8.90;99.90;;;;;;5097669;28;20228;-63
2024/03/02 01:28:13;;;;;;;17.60;14.43;;;8.90;99.90;;;;;;5098471;28;20212;-61
2024/03/02 01:30:39;;;;;;;22.40;14.63;;;8.90;99.90;;;;;;5100739;28;20204;-63
2024/03/02 01:33:05;;;;;;;17.00;14.45;;;8.90;99.90;;;;;;5100294;28;20200;-63
2024/03/02 01:35:34;;;;;;;16.80;13.00;;;8.90;99.90;;;;;;5099313;28;20197;-62
2024/03/02 01:38:01;;;;;;;21.75;14.07;;;8.90;99.90;;;;;;5099770;28;20983;-63
2024/03/02 01:40:28;;;;;;;19.25;14.85;;;8.90;99.90;;;;;;5098928;28;20203;-63
2024/03/02 01:42:57;;;;;;;16.05;13.95;;;8.90;99.90;;;;;;5098896;28;20204;-62
2024/03/02 01:45:24;;;;;;;19.27;14.70;;;8.90;99.90;;;;;;5098453;28;20601;-62
2024/03/02 01:47:51;;;;;;;25.45;15.23;;;8.80;99.90;;;;;;5096474;28;20216;-63
2024/03/02 01:50:26;;;;;;;19.35;15.27;;;8.90;99.90;;;;;;5096610;28;20200;-62
2024/03/02 01:52:55;;;;;;;16.50;12.93;;;8.80;99.90;;;;;;5096615;28;20191;-62
2024/03/02 01:55:22;;;;;;;18.65;15.75;;;8.80;99.90;;;;;;5096575;28;20283;-63
2024/03/02 01:57:50;;;;;;;18.48;13.48;;;8.80;99.90;;;;;;5096691;28;20228;-63
2024/03/02 02:00:17;;;;;;;18.88;13.57;;;8.80;99.90;;;;;;5097104;28;20207;-63
2024/03/02 02:02:44;;;;;;;20.63;15.05;;;8.80;99.90;;;;;;5097994;28;20204;-63
2024/03/02 02:05:11;;;;;;;23.15;16.58;;;8.80;99.90;;;;;;5096735;28;20197;-64
2024/03/02 02:07:38;;;;;;;21.63;15.70;;;8.80;99.90;;;;;;5096568;28;20227;-64
2024/03/02 02:10:07;;;;;;;21.52;14.18;;;8.80;99.90;;;;;;5096017;28;20224;-63
2024/03/02 02:12:34;;;;;;;20.80;15.60;;;8.80;99.90;;;;;;5096910;28;20200;-64
2024/03/02 02:15:01;;;;;;;19.23;14.27;;;8.80;99.90;;;;;;5097230;28;20207;-64
2024/03/02 02:17:28;;;;;;;22.38;15.98;;;8.80;99.90;;;;;;5096704;28;20216;-64
2024/03/02 02:19:54;;;;;;;23.08;15.40;;;8.80;99.90;;;;;;5097022;28;20205;-63
2024/03/02 02:22:22;;;;;;;19.75;15.25;;;8.80;99.90;;;;;;5096930;28;20203;-63
2024/03/02 02:24:49;;;;;;;23.88;16.42;;;8.70;99.90;;;;;;5096327;28;20358;-63
2024/03/02 02:27:16;;;;;;;18.05;13.75;;;8.70;99.90;;;;;;5096744;28;20204;-63
2024/03/02 02:29:43;;;;;;;23.48;16.70;;;8.70;99.90;;;;;;5096523;28;20200;-63
2024/03/02 02:32:09;;;;;;;21.13;15.65;;;8.70;99.90;;;;;;5095401;28;20575;-63
2024/03/02 02:34:36;;;;;;;22.52;14.90;;;8.70;99.90;;;;;;5095513;28;20200;-64
2024/03/02 02:37:03;;;;;;;21.25;15.05;;;8.60;99.90;;;;;;5095422;28;20203;-64
2024/03/02 02:39:31;;;;;;;20.80;15.52;;;8.60;99.90;;;;;;5095320;28;20220;-65
2024/03/02 02:41:58;;;;;;;19.42;14.65;;;8.70;99.90;;;;;;5096694;28;20239;-64
2024/03/02 02:44:25;;;;;;;20.17;14.15;;;8.60;99.90;;;;;;5095224;28;20244;-66
2024/03/02 02:46:51;;;;;;;21.15;15.00;;;8.60;99.90;;;;;;5095272;28;20204;-63
2024/03/02 02:49:18;;;;;;;20.52;13.80;;;8.60;99.90;;;;;;5095201;28;20214;-64
2024/03/02 02:51:45;;;;;;;21.60;15.10;;;8.60;99.90;;;;;;5094078;28;20196;-64
2024/03/02 02:54:11;;;;;;;18.88;14.02;;;8.60;99.90;;;;;;5094844;28;20200;-64
2024/03/02 02:56:40;;;;;;;24.60;15.45;;;8.60;99.90;;;;;;5094674;28;20666;-64
2024/03/02 02:59:06;;;;;;;20.92;15.43;;;8.60;99.90;;;;;;5095053;28;20231;-64
2024/03/02 03:01:33;;;;;;;21.25;14.55;;;8.60;99.90;;;;;;5095364;28;20196;-64
2024/03/02 03:04:00;;;;;;;21.10;15.00;;;8.60;99.90;;;;;;5094892;28;20204;-64
2024/03/02 03:06:26;;;;;;;18.70;15.95;;;8.60;99.90;;;;;;5094964;28;20204;-64
2024/03/02 03:08:53;;;;;;;23.00;15.80;;;8.60;99.90;;;;;;5094284;28;20216;-63
2024/03/02 03:11:21;;;;;;;23.20;14.13;;;8.60;99.90;;;;;;5094669;28;20562;-64
2024/03/02 03:13:49;;;;;;;20.50;13.90;;;8.60;99.90;;;;;;5094473;28;20321;-64
2024/03/02 03:16:16;;;;;;;19.65;14.27;;;8.60;99.90;;;;;;5094530;28;20200;-64
2024/03/02 03:18:42;;;;;;;21.33;14.00;;;8.50;99.90;;;;;;5093971;28;20230;-64
2024/03/02 03:21:09;;;;;;;19.00;14.20;;;8.50;99.90;;;;;;5094408;28;20200;-63
2024/03/02 03:23:36;;;;;;;17.73;13.45;;;8.40;99.90;;;;;;5094426;28;20203;-63
2024/03/02 03:26:03;;;;;;;17.50;13.60;;;8.40;99.90;;;;;;5094051;28;20693;-63
2024/03/02 03:28:29;;;;;;;19.10;12.35;;;8.40;99.90;;;;;;5094345;28;20242;-63
2024/03/02 03:30:57;;;;;;;19.00;14.05;;;8.30;99.90;;;;;;5112336;22;20679;-59
2024/03/02 03:33:24;;;;;;;18.48;13.00;;;8.30;99.90;;;;;;5074289;28;20212;-59
2024/03/02 03:35:51;;;;;;;20.13;13.30;;;8.20;99.90;;;;;;5073856;28;20208;-59
2024/03/02 03:38:18;;;;;;;18.80;13.70;;;8.10;99.90;;;;;;5072995;28;20678;-59
2024/03/02 03:40:44;;;;;;;17.08;13.05;;;8.10;99.90;;;;;;5073467;28;20311;-59
2024/03/02 03:43:11;;;;;;;22.08;13.55;;;8.00;99.90;;;;;;5073309;28;20201;-58
2024/03/02 03:45:38;;;;;;;18.40;12.20;;;8.00;99.90;;;;;;5073242;28;20220;-58
2024/03/02 03:48:06;;;;;;;20.85;13.70;;;7.90;99.90;;;;;;5073775;28;20208;-58
2024/03/02 03:50:33;;;;;;;21.23;13.80;;;7.90;99.90;;;;;;5073245;28;20217;-59
2024/03/02 03:53:00;;;;;;;17.73;13.27;;;7.80;99.90;;;;;;5073597;28;20208;-58
2024/03/02 03:55:26;;;;;;;18.60;12.80;;;7.80;99.90;;;;;;5073297;28;20216;-60
2024/03/02 03:57:53;;;;;;;17.38;13.27;;;7.70;99.90;;;;;;5072738;28;20207;-58
2024/03/02 04:00:20;;;;;;;17.65;13.20;;;7.70;99.90;;;;;;5073372;28;20235;-61
2024/03/02 04:02:47;;;;;;;20.10;13.30;;;7.60;99.90;;;;;;5072925;28;20208;-59
2024/03/02 04:05:15;;;;;;;18.75;12.57;;;7.60;99.90;;;;;;5072818;28;20205;-60
2024/03/02 04:07:42;;;;;;;19.25;12.40;;;7.60;99.90;;;;;;5072764;28;20200;-58
2024/03/02 04:13:19;;;;;;;19.70;14.25;;;7.50;99.90;;;;;;5091480;27;20621;-61
2024/03/02 04:15:45;;;;;;;17.67;13.30;;;7.50;99.90;;;;;;5090650;28;20207;-61
2024/03/02 04:18:12;;;;;;;18.10;12.55;;;7.50;99.90;;;;;;5090950;28;20201;-59
2024/03/02 04:20:39;;;;;;;18.65;12.40;;;7.50;99.90;;;;;;5090520;28;20231;-63
2024/03/02 04:23:06;;;;;;;21.75;14.25;;;7.50;99.90;;;;;;5090417;28;20199;-60
2024/03/02 04:25:32;;;;;;;21.80;13.65;;;7.50;99.90;;;;;;5083740;22;20726;-61
2024/03/02 04:27:59;;;;;;;19.40;13.88;;;7.50;99.90;;;;;;5050876;28;20202;-64
2024/03/02 04:30:27;;;;;;;19.75;13.40;;;7.50;99.90;;;;;;5050475;28;20202;-61
2024/03/02 04:32:54;;;;;;;16.45;12.57;;;7.50;99.90;;;;;;5050713;28;20228;-61
2024/03/02 04:35:21;;;;;;;18.23;13.10;;;7.50;99.90;;;;;;5050190;28;20218;-61
2024/03/02 04:37:47;;;;;;;18.38;13.25;;;7.50;99.90;;;;;;5050152;28;20201;-61
2024/03/02 04:40:14;;;;;;;16.95;13.13;;;7.50;99.90;;;;;;5050446;28;20206;-61
2024/03/02 04:42:41;;;;;;;19.10;13.45;;;7.50;99.90;;;;;;5050034;28;20580;-61
2024/03/02 04:45:08;;;;;;;21.77;14.30;;;7.50;99.90;;;;;;5050309;28;20222;-61
2024/03/02 04:47:37;;;;;;;15.15;11.95;;;7.50;99.90;;;;;;5050498;28;20670;-59
2024/03/02 04:50:04;;;;;;;19.42;13.32;;;7.50;99.90;;;;;;5050217;28;20202;-61
2024/03/02 04:52:30;;;;;;;16.35;13.15;;;7.40;99.90;;;;;;5049993;28;20567;-62
2024/03/02 04:55:19;;;;;;;18.40;14.18;;;7.40;99.90;;;;;;5049777;28;20222;-61
2024/03/02 04:57:47;;;;;;;19.35;14.32;;;7.40;99.90;;;;;;5049730;28;20663;-60
2024/03/02 05:00:14;;;;;;;20.98;13.32;;;7.40;99.90;;;;;;5049037;28;20749;-58
2024/03/02 05:02:42;;;;;;;22.10;14.55;;;7.40;99.90;;;;;;5050410;28;20201;-60
2024/03/02 05:05:09;;;;;;;18.30;13.23;;;7.30;99.90;;;;;;5049135;28;20234;-60
2024/03/02 05:07:36;;;;;;;20.50;12.45;;;7.30;99.90;;;;;;5049607;28;20576;-61
2024/03/02 05:10:03;;;;;;;18.17;12.52;;;7.30;99.90;;;;;;5049163;28;20646;-61
2024/03/02 05:12:56;;;;;;;24.75;13.80;;;7.30;99.90;;;;;;5049519;28;20222;-61
2024/03/02 05:15:23;;;;;;;21.73;15.23;;;7.20;99.90;;;;;;5051534;28;20233;-60
2024/03/02 05:17:51;;;;;;;18.65;14.45;;;7.20;99.90;;;;;;5049846;28;20577;-62
2024/03/02 05:20:18;;;;;;;21.20;14.57;;;7.20;99.90;;;;;;5049807;28;20214;-61
2024/03/02 05:22:45;;;;;;;21.40;15.27;;;7.20;99.90;;;;;;5047025;28;20199;-61
2024/03/02 05:25:12;;;;;;;22.83;14.80;;;7.10;99.90;;;;;;5036149;28;20238;-61
2024/03/02 05:27:39;;;;;;;22.60;14.95;;;7.10;99.90;;;;;;5036485;28;20576;-61
2024/03/02 05:30:07;;;;;;;23.10;14.43;;;7.10;99.90;;;;;;5038250;28;20198;-61
2024/03/02 05:32:34;;;;;;;22.80;15.52;;;7.00;99.90;;;;;;5038409;28;20219;-59
2024/03/02 05:35:02;;;;;;;21.70;15.50;;;7.00;99.90;;;;;;5038852;28;20229;-60
2024/03/02 05:37:29;;;;;;;21.85;15.00;;;7.00;99.90;;;;;;5037920;28;20324;-60
2024/03/02 05:39:56;;;;;;;27.67;15.88;;;7.00;99.90;;;;;;5038009;28;20202;-61
2024/03/02 05:42:23;;;;;;;22.48;15.50;;;6.90;99.90;;;;;;5038489;28;20256;-61
2024/03/02 05:44:50;;;;;;;27.75;17.85;;;6.90;99.90;;;;;;5040149;28;20226;-60
2024/03/02 05:47:17;;;;;;;33.33;16.42;;;6.90;99.90;;;;;;5041650;28;20209;-60
2024/03/02 05:49:43;;;;;;;26.30;16.15;;;6.80;99.90;;;;;;5041584;28;20309;-60
2024/03/02 05:52:12;;;;;;;28.02;17.95;;;6.80;99.90;;;;;;5036404;28;20214;-60
2024/03/02 05:54:39;;;;;;;26.10;17.25;;;6.80;99.90;;;;;;5035975;28;20222;-61
2024/03/02 05:57:26;;;;;;;23.65;17.25;;;6.80;99.90;;;;;;5035452;28;20677;-61
2024/03/02 05:59:53;;;;;;;23.88;17.67;;;6.70;99.90;;;;;;5035346;28;20225;-61
2024/03/02 06:02:20;;;;;;;26.58;17.77;;;6.60;99.90;;;;;;5035276;28;20639;-61
2024/03/02 06:04:47;;;;;;;24.17;16.10;;;6.60;99.90;;;;;;5035463;28;20731;-61
2024/03/02 06:07:15;;;;;;;30.30;17.75;;;6.60;99.90;;;;;;5035738;28;20198;-61
2024/03/02 06:09:42;;;;;;;28.48;16.67;;;6.50;99.90;;;;;;5034960;28;20622;-62
2024/03/02 06:12:09;;;;;;;25.17;17.00;;;6.50;99.90;;;;;;5034999;28;20218;-61
2024/03/02 06:14:35;;;;;;;26.55;17.50;;;6.50;99.90;;;;;;5034995;28;20226;-60
2024/03/02 06:17:02;;;;;;;27.38;18.13;;;6.50;99.90;;;;;;5034489;28;20700;-61
2024/03/02 06:19:29;;;;;;;24.55;17.08;;;6.50;99.90;;;;;;5034933;28;20203;-60
2024/03/02 06:21:56;;;;;;;27.13;19.02;;;6.50;99.90;;;;;;5035033;28;20199;-61
2024/03/02 06:24:24;;;;;;;30.27;18.38;;;6.50;99.90;;;;;;5035083;28;20244;-61
2024/03/02 06:26:50;;;;;;;26.40;16.65;;;6.50;99.90;;;;;;5034643;28;20510;-60
2024/03/02 06:29:17;;;;;;;28.23;17.73;;;6.40;99.90;;;;;;5034881;28;20202;-60
2024/03/02 06:31:44;;;;;;;27.98;18.00;;;6.40;99.90;;;;;;5034497;28;20225;-60
2024/03/02 06:34:11;;;;;;;28.80;18.75;;;6.50;99.90;;;;;;5035071;28;20309;-61
2024/03/02 06:36:39;;;;;;;27.50;18.20;;;6.50;99.90;;;;;;5034074;28;20203;-61
2024/03/02 06:39:06;;;;;;;24.92;16.75;;;6.50;99.90;;;;;;5034824;28;20209;-60
2024/03/02 06:41:35;;;;;;;25.98;16.40;;;6.60;99.90;;;;;;5035715;28;20225;-61
2024/03/02 06:44:01;;;;;;;23.92;17.00;;;6.60;99.90;;;;;;5034896;28;20222;-60
2024/03/02 06:46:29;;;;;;;28.05;18.33;;;6.60;99.90;;;;;;5034711;28;20206;-60
2024/03/02 06:48:55;;;;;;;23.02;17.20;;;6.70;99.90;;;;;;5034635;28;20580;-62
2024/03/02 06:51:22;;;;;;;26.27;18.52;;;6.70;99.90;;;;;;5034482;28;20313;-61
2024/03/02 06:53:49;;;;;;;28.52;17.75;;;6.90;99.90;;;;;;5034088;28;20224;-61
2024/03/02 06:56:16;;;;;;;27.08;18.17;;;6.90;99.90;;;;;;5034454;28;20203;-61
2024/03/02 06:58:44;;;;;;;29.00;19.77;;;7.10;99.90;;;;;;5034398;28;20233;-60
2024/03/02 07:01:10;;;;;;;29.10;17.60;;;7.10;99.90;;;;;;5034318;28;20285;-63
2024/03/02 07:03:39;;;;;;;22.30;15.65;;;7.20;99.90;;;;;;5035248;28;20198;-60
2024/03/02 07:06:06;;;;;;;27.52;18.27;;;7.30;99.90;;;;;;5034917;28;20203;-61
2024/03/02 07:08:32;;;;;;;29.65;19.35;;;7.40;99.90;;;;;;5035335;28;20217;-60
2024/03/02 07:10:59;;;;;;;21.67;16.02;;;7.50;99.90;;;;;;5034850;28;20208;-61
2024/03/02 07:13:26;;;;;;;23.48;15.80;;;7.60;99.90;;;;;;5034807;28;20222;-60
2024/03/02 07:18:55;;;;;;;25.55;17.67;;;7.80;99.90;;;;;;4992841;28;20232;-61
2024/03/02 07:21:22;;;;;;;20.35;15.90;;;7.90;99.90;;;;;;4993762;28;20350;-60
2024/03/02 07:23:49;;;;;;;22.00;15.82;;;8.00;99.90;;;;;;5018689;28;20206;-60
2024/03/02 07:26:16;;;;;;;21.88;16.20;;;8.00;99.90;;;;;;5038555;28;20193;-60
2024/03/02 07:28:43;;;;;;;25.20;17.65;;;8.10;99.90;;;;;;5034986;28;20202;-59
2024/03/02 07:31:11;;;;;;;26.58;17.77;;;8.20;99.90;;;;;;5033928;28;20252;-60
2024/03/02 07:33:38;;;;;;;25.05;16.85;;;8.30;99.90;;;;;;5033484;28;20708;-60
2024/03/02 07:36:05;;;;;;;26.08;16.50;;;8.40;99.90;;;;;;5033232;28;20210;-61
2024/03/02 07:38:35;;;;;;;27.13;16.60;;;8.50;99.90;;;;;;5034107;28;20787;-61
2024/03/02 07:41:02;;;;;;;20.73;15.52;;;8.50;99.90;;;;;;5034090;28;20264;-60
2024/03/02 07:43:29;;;;;;;21.83;15.18;;;8.50;99.90;;;;;;5034062;28;20202;-60
2024/03/02 07:45:56;;;;;;;22.52;16.80;;;8.60;99.90;;;;;;5034119;28;20226;-61
2024/03/02 07:48:25;;;;;;;22.17;15.82;;;8.70;99.90;;;;;;5033918;28;20560;-62
2024/03/02 07:50:51;;;;;;;21.73;16.25;;;8.80;99.90;;;;;;5033938;28;20593;-59
2024/03/02 07:53:18;;;;;;;20.80;14.77;;;8.80;99.90;;;;;;5033724;28;20219;-60
2024/03/02 07:55:45;;;;;;;23.50;16.10;;;8.90;99.90;;;;;;5033583;28;20233;-61
2024/03/02 07:58:13;;;;;;;22.45;16.77;;;9.00;99.90;;;;;;5034065;28;20578;-61
2024/03/02 08:00:40;;;;;;;21.65;16.20;;;9.00;99.90;;;;;;5034155;28;20230;-60
2024/03/02 08:03:07;;;;;;;22.25;15.90;;;9.10;99.90;;;;;;5033151;28;20202;-61
2024/03/02 08:05:35;;;;;;;20.88;15.63;;;9.20;99.90;;;;;;5033081;28;20222;-61
2024/03/02 08:08:02;;;;;;;21.10;15.57;;;9.30;99.90;;;;;;5036765;28;20213;-61
2024/03/02 08:10:29;;;;;;;20.43;14.27;;;9.40;99.90;;;;;;5036990;28;20535;-60
2024/03/02 08:12:55;;;;;;;20.77;15.77;;;9.50;99.90;;;;;;5033909;28;20499;-60
2024/03/02 08:15:22;;;;;;;21.17;15.67;;;9.60;99.90;;;;;;5033137;28;20477;-59
2024/03/02 08:17:49;;;;;;;21.73;15.30;;;9.80;99.90;;;;;;5033000;28;20441;-60
2024/03/02 08:20:16;;;;;;;22.93;15.40;;;9.90;99.90;;;;;;5033090;28;20835;-62
2024/03/02 08:22:44;;;;;;;22.00;15.53;;;10.00;99.90;;;;;;5033027;28;20445;-61
2024/03/02 08:25:11;;;;;;;20.13;15.47;;;10.20;99.90;;;;;;5032760;28;20473;-61
2024/03/02 08:27:38;;;;;;;20.43;14.53;;;10.30;99.90;;;;;;5033246;28;20449;-60
2024/03/02 08:30:08;;;;;;;21.00;15.40;;;10.50;99.90;;;;;;5032506;28;20460;-60
2024/03/02 08:32:34;;;;;;;19.13;14.40;;;10.60;99.90;;;;;;5032724;28;20564;-60
2024/03/02 08:35:01;;;;;;;21.30;15.63;;;10.80;99.90;;;;;;5033240;28;20460;-60
2024/03/02 08:37:28;;;;;;;20.13;14.50;;;10.90;99.90;;;;;;5034764;28;20810;-62
2024/03/02 08:39:56;;;;;;;22.23;15.20;;;11.00;99.90;;;;;;5034178;28;20441;-62
2024/03/02 08:42:23;;;;;;;19.77;14.30;;;11.10;99.90;;;;;;5032729;28;20452;-60
2024/03/02 08:44:50;;;;;;;18.87;14.77;;;11.10;99.90;;;;;;5032952;28;20461;-61
2024/03/02 08:47:17;;;;;;;20.60;12.57;;;11.20;99.90;;;;;;5033302;28;20447;-61
2024/03/02 08:49:44;;;;;;;19.40;14.20;;;11.20;99.90;;;;;;5033369;28;20448;-60
2024/03/02 08:52:11;;;;;;;19.40;13.97;;;11.30;99.90;;;;;;5033193;28;20437;-62
2024/03/02 08:54:37;;;;;;;23.33;15.30;;;11.40;99.90;;;;;;5032614;28;20956;-61
2024/03/02 08:57:07;;;;;;;19.63;13.50;;;11.50;99.90;;;;;;5033110;28;20460;-62
2024/03/02 08:59:34;;;;;;;20.47;15.03;;;11.60;99.90;;;;;;5036091;28;20453;-60
2024/03/02 09:02:00;;;;;;;19.97;14.27;;;11.70;99.90;;;;;;5036614;28;20441;-62
2024/03/02 09:04:28;;;;;;;20.67;14.30;;;11.70;99.90;;;;;;5037293;28;20483;-62
2024/03/02 09:06:54;;;;;;;16.23;13.07;;;11.70;99.90;;;;;;5036541;28;20950;-61
2024/03/02 09:09:21;;;;;;;17.50;13.00;;;11.80;99.90;;;;;;5036554;28;20452;-60
2024/03/02 09:11:48;;;;;;;18.30;13.07;;;11.90;99.90;;;;;;5036596;28;20440;-61
2024/03/02 09:14:16;;;;;;;16.63;12.80;;;11.90;99.90;;;;;;5035946;28;20481;-62
2024/03/02 09:16:44;;;;;;;17.07;12.33;;;11.90;99.90;;;;;;5036434;28;20970;-60
2024/03/02 09:19:10;;;;;;;17.20;13.67;;;12.00;99.90;;;;;;5036288;28;20445;-61
2024/03/02 09:21:37;;;;;;;17.83;12.73;;;12.00;99.90;;;;;;5036115;28;20443;-66
2024/03/02 09:24:06;;;;;;;17.97;13.70;;;12.10;99.90;;;;;;5036289;28;20472;-61
2024/03/02 09:26:33;;;;;;;20.00;13.87;;;12.10;99.90;;;;;;5036294;28;20938;-62
2024/03/02 09:29:00;;;;;;;16.30;12.40;;;12.30;99.90;;;;;;5036939;28;20445;-61
2024/03/02 09:31:28;;;;;;;14.80;12.27;;;12.40;99.70;;;;;;5036928;28;20445;-63
2024/03/02 09:33:54;;;;;;;19.47;13.67;;;12.50;99.20;;;;;;5037762;28;20483;-62
2024/03/02 09:36:23;;;;;;;20.50;13.17;;;12.60;98.70;;;;;;5038454;28;20452;-61
2024/03/02 09:38:50;;;;;;;18.03;12.50;;;12.70;98.00;;;;;;5039217;28;20441;-62
2024/03/02 09:41:17;;;;;;;16.13;11.63;;;12.70;97.30;;;;;;5039334;28;20445;-61
2024/03/02 09:43:43;;;;;;;17.60;13.30;;;12.80;96.90;;;;;;5039648;28;20440;-62
2024/03/02 09:46:11;;;;;;;16.07;12.70;;;12.90;96.60;;;;;;5041772;28;20449;-61
2024/03/02 09:48:39;;;;;;;15.67;12.20;;;12.90;95.80;;;;;;5042418;28;20463;-61
2024/03/02 09:51:06;;;;;;;18.17;12.70;;;12.90;95.40;;;;;;5038275;28;20445;-61
2024/03/02 09:53:34;;;;;;;14.30;12.13;;;12.90;95.10;;;;;;5035996;28;20654;-62
2024/03/02 09:56:01;;;;;;;19.00;12.27;;;12.90;94.90;;;;;;5038302;28;20515;-62
2024/03/02 09:58:28;;;;;;;17.20;12.67;;;12.90;94.60;;;;;;5042797;28;20815;-60
2024/03/02 10:00:55;;;;;;;19.10;13.20;;;13.00;94.40;;;;;;5042917;28;20445;-62
2024/03/02 10:03:24;;;;;;;17.97;13.43;;;13.00;94.20;;;;;;5041136;28;20441;-62
2024/03/02 10:05:52;;;;;;;17.27;12.67;;;13.00;93.50;;;;;;5043249;28;20473;-62
2024/03/02 10:08:19;;;;;;;16.07;12.83;;;13.00;93.10;;;;;;5042614;28;20496;-61
2024/03/02 10:10:45;;;;;;;16.63;12.10;;;13.00;93.00;;;;;;5042059;28;20447;-62
2024/03/02 10:13:14;;;;;;;17.83;11.83;;;13.00;92.80;;;;;;5042458;28;20849;-61
2024/03/02 10:15:42;;;;;;;18.70;13.43;;;13.00;92.40;;;;;;5040803;28;20464;-61
2024/03/02 10:18:11;;;;;;;18.20;11.77;;;13.00;92.30;;;;;;5038110;28;20942;-62
2024/03/02 10:20:38;;;;;;;16.70;13.00;;;13.10;92.00;;;;;;5035627;28;20892;-62
2024/03/02 10:23:13;;;;;;;17.97;13.00;;;13.10;92.00;;;;;;5035648;28;20445;-61
2024/03/02 10:25:40;;;;;;;15.90;13.00;;;13.20;91.70;;;;;;5034967;28;20472;-62
2024/03/02 10:28:07;;;;;;;16.63;12.47;;;13.30;91.40;;;;;;5035511;28;20455;-64
2024/03/02 10:30:34;;;;;;;16.50;12.23;;;13.40;90.90;;;;;;5034814;28;20914;-62
2024/03/02 10:33:02;;;;;;;17.07;12.20;;;13.40;90.60;;;;;;5035262;28;20445;-61
2024/03/02 10:35:30;;;;;;;18.37;12.30;;;13.60;90.20;;;;;;5035246;28;20449;-62
2024/03/02 10:38:00;;;;;;;16.13;13.20;;;13.80;89.10;;;;;;5034809;28;20449;-61
2024/03/02 10:40:28;;;;;;;15.43;12.77;;;13.90;87.20;;;;;;5034978;28;20962;-61
2024/03/02 10:42:56;;;;;;;14.50;11.47;;;14.00;86.00;;;;;;5034460;28;20827;-61
2024/03/02 10:45:24;;;;;;;17.27;12.20;;;14.00;85.30;;;;;;5034289;28;20458;-60
2024/03/02 10:47:51;;;;;;;15.87;12.13;;;14.00;84.40;;;;;;5034261;28;20445;-62
2024/03/02 10:50:18;;;;;;;18.10;13.97;;;14.00;83.70;;;;;;5034647;28;20943;-61
2024/03/02 10:52:46;;;;;;;14.23;11.53;;;14.00;83.10;;;;;;5034986;28;20448;-61
2024/03/02 10:55:13;;;;;;;14.03;11.27;;;14.00;82.80;;;;;;5034471;28;21010;-62
2024/03/02 10:57:51;;;;;;;13.70;11.30;;;14.10;82.50;;;;;;5034928;28;20441;-61
2024/03/02 11:00:24;;;;;;;13.47;11.10;;;14.10;81.40;;;;;;5034427;28;20904;-62
2024/03/02 11:02:52;;;;;;;13.13;9.20;;;14.10;80.70;;;;;;5034290;28;20442;-61
2024/03/02 11:05:27;;;;;;;12.87;10.00;;;14.20;79.70;;;;;;5034383;28;20457;-61
2024/03/02 11:07:58;;;;;;;11.83;10.13;;;14.20;79.00;;;;;;5034235;28;20499;-61
2024/03/02 11:10:26;;;;;;;13.40;10.37;;;14.30;78.00;;;;;;5034638;28;20437;-61
2024/03/02 11:13:00;;;;;;;11.93;9.43;;;14.40;77.30;;;;;;5034500;28;20448;-61
2024/03/02 11:15:28;;;;;;;12.47;9.47;;;14.50;76.50;;;;;;5034650;28;20459;-62
2024/03/02 11:17:56;;;;;;;14.20;9.50;;;14.60;75.90;;;;;;5034330;28;20440;-62
2024/03/02 11:20:24;;;;;;;11.90;9.93;;;14.70;75.10;;;;;;5033955;28;20453;-61
2024/03/02 11:22:51;;;;;;;15.37;10.33;;;14.70;74.20;;;;;;5033784;28;20441;-61
2024/03/02 11:25:25;;;;;;;13.60;8.83;;;14.80;73.60;;;;;;5034749;28;20469;-62
2024/03/02 11:28:04;;;;;;;11.10;9.27;;;14.80;73.70;;;;;;5034442;28;20440;-61
2024/03/02 11:30:49;;;;;;;11.37;9.00;;;14.70;72.70;;;;;;5033863;28;20441;-61
2024/03/02 11:33:24;;;;;;;10.40;8.30;;;14.60;72.20;;;;;;5033678;28;20441;-62
2024/03/02 11:35:51;;;;;;;11.67;9.17;;;14.50;72.20;;;;;;5034014;28;20518;-61
2024/03/02 11:38:19;;;;;;;11.30;8.95;;;14.40;72.00;;;;;;5033994;28;20452;-61
2024/03/02 11:40:45;;;;;;;10.57;9.00;;;14.40;72.30;;;;;;5033855;28;20203;-60
2024/03/02 11:43:14;;;;;;;11.53;8.33;;;14.40;72.20;;;;;;5033875;28;20445;-62
2024/03/02 11:45:43;;;;;;;8.00;6.97;;;14.60;71.80;;;;;;5033117;28;21009;-62
2024/03/02 11:48:13;;;;;;;10.80;8.43;;;14.70;71.10;;;;;;5033661;28;20445;-61
2024/03/02 11:50:42;;;;;;;9.43;7.90;;;14.80;70.30;;;;;;5033768;28;20978;-62
2024/03/02 11:53:12;;;;;;;9.50;7.37;;;14.90;69.90;;;;;;5033936;28;20493;-61
2024/03/02 11:55:40;;;;;;;9.73;6.90;;;14.90;69.30;;;;;;5038716;28;20461;-62
2024/03/02 11:58:07;;;;;;;8.40;6.40;;;15.00;68.70;;;;;;5039774;28;20440;-61
2024/03/02 12:00:35;;;;;;;8.90;7.70;;;15.00;68.10;;;;;;5034580;28;20445;-62
2024/03/02 12:03:03;;;;;;;10.40;7.80;;;15.10;67.90;;;;;;5034324;28;20436;-61
2024/03/02 12:05:31;;;;;;;8.07;6.27;;;15.20;67.20;;;;;;5033962;28;20457;-62
2024/03/02 12:07:59;;;;;;;9.90;7.03;;;15.40;66.70;;;;;;5033596;28;20519;-62
2024/03/02 12:10:26;;;;;;;9.30;6.83;;;15.60;66.10;;;;;;5033883;28;20779;-62
2024/03/02 12:12:57;;;;;;;8.70;6.20;;;15.80;65.40;;;;;;5034167;28;20448;-62
2024/03/02 12:15:26;;;;;;;7.83;5.73;;;15.90;64.50;;;;;;5033691;28;20542;-61
2024/03/02 12:17:56;;;;;;;8.13;6.70;;;15.90;64.00;;;;;;5033962;28;20452;-61
2024/03/02 12:20:24;;;;;;;8.20;5.60;;;15.90;63.70;;;;;;5033773;28;20538;-62
2024/03/02 12:22:52;;;;;;;6.53;5.80;;;15.80;63.70;;;;;;5033810;28;20930;-62
2024/03/02 12:25:19;;;;;;;7.57;5.90;;;15.80;63.80;;;;;;5033273;28;20829;-61
2024/03/02 12:27:47;;;;;;;8.50;5.40;;;15.80;63.90;;;;;;5033409;28;20455;-62
2024/03/02 12:30:13;;;;;;;6.80;5.57;;;15.80;64.00;;;;;;5033558;28;20532;-61
2024/03/02 12:32:41;;;;;;;6.47;5.80;;;15.70;63.90;;;;;;5033562;28;20441;-61
2024/03/02 12:35:14;;;;;;;9.07;5.97;;;15.60;63.80;;;;;;5037359;28;20954;-62
2024/03/02 12:37:45;;;;;;;7.87;5.70;;;15.60;63.70;;;;;;5037271;28;20491;-62
2024/03/02 12:40:13;;;;;;;9.37;5.50;;;15.50;63.50;;;;;;5037865;28;20445;-61
2024/03/02 12:42:41;;;;;;;7.80;5.70;;;15.40;63.30;;;;;;5037877;28;20437;-61
2024/03/02 12:45:08;;;;;;;10.63;5.97;;;15.40;63.00;;;;;;5036801;28;20469;-61